This is the latest recevied weather packets stored in our database for station/object TG9SRP-22. If no packets are shown the sender has not sent any weather packets the latest 10 day(s).
| Time | Temp. | Humidity | Pressure | Rain* | Wind** | Luminosity | Snow |
|---|---|---|---|---|---|---|---|
| 1777718115 | 14.44° C | 92% | 1014 hPa | 0 mm | - | - | - |
| 1777717514 | 12.22° C | 93% | 1013 hPa | 0 mm | - | - | - |
| 1777716913 | 13.33° C | 92% | 1013 hPa | 0 mm | - | - | - |
| 1777716313 | 13.89° C | 91% | 1013 hPa | 0 mm | - | - | - |
| 1777715712 | 14.44° C | 92% | 1013 hPa | 0 mm | - | - | - |
| 1777715112 | 12.22° C | 93% | 1013 hPa | 0 mm | - | - | - |
| 1777714511 | 13.33° C | 92% | 1013 hPa | 0 mm | - | - | - |
| 1777713910 | 13.89° C | 92% | 1013 hPa | 0 mm | - | - | - |
| 1777713310 | 14.44° C | 93% | 1013 hPa | 0 mm | - | - | - |
| 1777712709 | 12.22° C | 97% | 1013 hPa | 0 mm | - | - | - |
| 1777712108 | 12.78° C | 96% | 1013 hPa | 0 mm | - | - | - |
| 1777711508 | 12.22° C | 93% | 1013 hPa | 0 mm | - | - | - |
| 1777710907 | 13.33° C | 92% | 1013 hPa | 0 mm | - | - | - |
| 1777710307 | 14.44° C | 91% | 1013 hPa | 0 mm | - | - | - |
| 1777709706 | 15° C | 91% | 1013 hPa | 0 mm | - | - | - |
| 1777709105 | 12.78° C | 10% | - | 0 mm | - | - | - |
| 1777708505 | 13.33° C | 10% | - | 0 mm | - | - | - |
| 1777707904 | 12.78° C | 96% | 1014 hPa | 0 mm | - | - | - |
| 1777707303 | 12.78° C | 96% | 1014 hPa | 0 mm | - | - | - |
| 1777706703 | 13.33° C | 93% | 1014 hPa | 0 mm | - | - | - |
| 1777706102 | 14.44° C | 92% | 1014 hPa | 0 mm | - | - | - |
| 1777705501 | 15.56° C | 92% | 1014 hPa | 0 mm | - | - | - |
| 1777704901 | 13.33° C | 94% | 1014 hPa | 0 mm | - | - | - |
| 1777704300 | 14.44° C | 93% | 1014 hPa | 0 mm | - | - | - |
| 1777703699 | 15.56° C | 93% | 1014 hPa | 0 mm | - | - | - |
* Rain latest hour (hover to see other rain measurements)
** Current wind speed in m/s (hover to see current wind gust speed)